createdAt,value
2024-04-21T00:00:18.861Z,51.259575
2024-04-21T00:01:19.932Z,51.259567
2024-04-21T00:02:18.832Z,51.259544
2024-04-21T00:03:18.952Z,51.259609
2024-04-21T00:04:18.845Z,51.259609
2024-04-21T00:05:18.779Z,51.259640
2024-04-21T00:06:18.878Z,51.259544
2024-04-21T00:07:18.858Z,51.259525
2024-04-21T00:08:18.752Z,51.259560
2024-04-21T00:09:18.731Z,51.259567
2024-04-21T00:10:18.769Z,51.259487
2024-04-21T00:11:18.801Z,51.259510
2024-04-21T00:12:18.705Z,51.259563
2024-04-21T00:13:18.754Z,51.259556
2024-04-21T00:14:18.709Z,51.259605
2024-04-21T00:15:18.682Z,51.259537
2024-04-21T00:16:18.858Z,51.259556
2024-04-21T00:17:18.653Z,51.259476
2024-04-21T00:18:18.647Z,51.259613
2024-04-21T00:19:18.684Z,51.259621
2024-04-21T00:20:19.233Z,51.259594
2024-04-21T00:21:18.638Z,51.259598
2024-04-21T00:22:18.661Z,51.259518
2024-04-21T00:23:18.615Z,51.259491
2024-04-21T00:24:18.606Z,51.259537
2024-04-21T00:25:18.676Z,51.259525
2024-04-21T00:26:18.570Z,51.259533
2024-04-21T00:27:18.551Z,51.259598
2024-04-21T00:28:18.581Z,51.259628
2024-04-21T00:29:18.528Z,51.259590
2024-04-21T00:30:18.600Z,51.259571
2024-04-21T00:31:18.570Z,51.259567
2024-04-21T00:32:18.503Z,51.259571
2024-04-21T00:33:18.576Z,51.259640
2024-04-21T00:34:18.538Z,51.259544
2024-04-21T00:35:18.489Z,51.259556
2024-04-21T00:36:18.456Z,51.259521
2024-04-21T00:37:18.516Z,51.259575
2024-04-21T00:38:18.440Z,51.259575
2024-04-21T00:39:18.468Z,51.259579
2024-04-21T00:40:20.765Z,51.259521
2024-04-21T00:41:18.403Z,51.259556
2024-04-21T00:42:18.400Z,51.259586
2024-04-21T00:43:18.582Z,51.259605
2024-04-21T00:44:18.394Z,51.259621
2024-04-21T00:45:26.429Z,51.259518
2024-04-21T00:46:20.413Z,51.259613
2024-04-21T00:47:18.391Z,51.259586
2024-04-21T00:48:18.353Z,51.259651
2024-04-21T00:49:18.412Z,51.259598
2024-04-21T00:50:18.312Z,51.259571
2024-04-21T00:51:18.291Z,51.259636
2024-04-21T00:52:18.350Z,51.259556
2024-04-21T00:53:18.302Z,51.259544
2024-04-21T00:54:18.259Z,51.259579
2024-04-21T00:55:18.288Z,51.259663
2024-04-21T00:56:18.245Z,51.259647
2024-04-21T00:57:18.263Z,51.259670
2024-04-21T00:58:18.308Z,51.259647
2024-04-21T00:59:18.248Z,51.259502
2024-04-21T01:00:18.376Z,51.259575
2024-04-21T01:01:18.347Z,51.259571
2024-04-21T01:02:18.317Z,51.259628
2024-04-21T01:03:18.191Z,51.259556
2024-04-21T01:04:18.344Z,51.259724
2024-04-21T01:05:18.302Z,51.259686
2024-04-21T01:06:18.197Z,51.259624
2024-04-21T01:07:18.290Z,51.259594
2024-04-21T01:08:18.227Z,51.259529
2024-04-21T01:09:18.171Z,51.259617
2024-04-21T01:10:18.427Z,51.259705
2024-04-21T01:11:18.212Z,51.259663
2024-04-21T01:12:18.202Z,51.259617
2024-04-21T01:13:18.121Z,51.259705
2024-04-21T01:14:18.044Z,51.259640
2024-04-21T01:15:18.058Z,51.259621
2024-04-21T01:16:18.200Z,51.259621
2024-04-21T01:17:18.049Z,51.259621
2024-04-21T01:18:18.085Z,51.259613
2024-04-21T01:19:18.009Z,51.259567
2024-04-21T01:20:18.011Z,51.259613
2024-04-21T01:21:18.000Z,51.259560
2024-04-21T01:22:18.060Z,51.259529
2024-04-21T01:23:17.951Z,51.259579
2024-04-21T01:24:17.944Z,51.259605
2024-04-21T01:25:18.360Z,51.259678
2024-04-21T01:26:17.952Z,51.259640
2024-04-21T01:27:17.919Z,51.259624
2024-04-21T01:28:18.027Z,51.259556
2024-04-21T01:29:17.906Z,51.259541
2024-04-21T01:30:17.910Z,51.259640
2024-04-21T01:31:17.997Z,51.259701
2024-04-21T01:32:17.918Z,51.259823
2024-04-21T01:33:17.899Z,51.259686
2024-04-21T01:34:17.920Z,51.259598
2024-04-21T01:35:17.899Z,51.259567
2024-04-21T01:36:17.839Z,51.259628
2024-04-21T01:37:17.924Z,51.259548
2024-04-21T01:38:17.828Z,51.259480
2024-04-21T01:39:17.841Z,51.259521
2024-04-21T01:40:17.860Z,51.259499
2024-04-21T01:41:17.826Z,51.259518
2024-04-21T01:42:17.785Z,51.259644
2024-04-21T01:43:17.873Z,51.259556
2024-04-21T01:44:17.802Z,51.259594
2024-04-21T01:45:17.799Z,51.259605
2024-04-21T01:46:17.800Z,51.259655
2024-04-21T01:47:17.782Z,51.259605
2024-04-21T01:48:17.750Z,51.259602
2024-04-21T01:49:17.842Z,51.259590
2024-04-21T01:50:17.728Z,51.259560
2024-04-21T01:51:17.722Z,51.259529
2024-04-21T01:52:17.757Z,51.259518
2024-04-21T01:53:17.711Z,51.259651
2024-04-21T01:54:17.707Z,51.259586
2024-04-21T01:55:17.893Z,51.259583
2024-04-21T01:56:17.676Z,51.259563
2024-04-21T01:57:17.699Z,51.259571
2024-04-21T01:58:17.742Z,51.259556
2024-04-21T01:59:17.666Z,51.259567
2024-04-21T02:00:17.663Z,51.259510
2024-04-21T02:01:17.741Z,51.259552
2024-04-21T02:02:17.647Z,51.259548
2024-04-21T02:03:17.650Z,51.259495
2024-04-21T02:04:17.677Z,51.259491
2024-04-21T02:05:18.621Z,51.259506
2024-04-21T02:06:17.595Z,51.259533
2024-04-21T02:07:17.654Z,51.259567
2024-04-21T02:08:17.608Z,51.259583
2024-04-21T02:09:17.574Z,51.259590
2024-04-21T02:10:17.629Z,51.259613
2024-04-21T02:11:17.581Z,51.259483
2024-04-21T02:12:17.574Z,51.259460
2024-04-21T02:13:17.614Z,51.259487
2024-04-21T02:14:17.534Z,51.259537
2024-04-21T02:15:17.556Z,51.259644
2024-04-21T02:16:17.574Z,51.259579
2024-04-21T02:17:17.559Z,51.259598
2024-04-21T02:18:17.506Z,51.259426
2024-04-21T02:19:18.299Z,51.259518
2024-04-21T02:20:17.481Z,51.259529
2024-04-21T02:21:17.486Z,51.259579
2024-04-21T02:22:17.536Z,51.259548
2024-04-21T02:23:17.458Z,51.259510
2024-04-21T02:24:17.474Z,51.259548
2024-04-21T02:25:17.528Z,51.259518
2024-04-21T02:26:17.469Z,51.259525
2024-04-21T02:27:17.472Z,51.259533
2024-04-21T02:28:17.454Z,51.259521
2024-04-21T02:29:17.415Z,51.259468
2024-04-21T02:30:17.404Z,51.259533
2024-04-21T02:31:17.554Z,51.259544
2024-04-21T02:32:17.394Z,51.259621
2024-04-21T02:33:17.431Z,51.259518
2024-04-21T02:34:17.455Z,51.259518
2024-04-21T02:35:17.371Z,51.259472
2024-04-21T02:36:17.397Z,51.259533
2024-04-21T02:37:17.407Z,51.259579
2024-04-21T02:38:17.348Z,51.259586
2024-04-21T02:39:17.358Z,51.259579
2024-04-21T02:40:17.465Z,51.259666
2024-04-21T02:41:17.332Z,51.259598
2024-04-21T02:42:17.311Z,51.259644
2024-04-21T02:43:17.316Z,51.259560
2024-04-21T02:44:17.291Z,51.259521
2024-04-21T02:45:17.300Z,51.259510
2024-04-21T02:46:17.367Z,51.259533
2024-04-21T02:47:17.319Z,51.259445
2024-04-21T02:48:17.268Z,51.259468
2024-04-21T02:49:17.432Z,51.259480
2024-04-21T02:50:17.287Z,51.259514
2024-04-21T02:51:17.244Z,51.259521
2024-04-21T02:52:17.258Z,51.259544
2024-04-21T02:53:17.224Z,51.259609
2024-04-21T02:54:17.245Z,51.259605
2024-04-21T02:55:17.280Z,51.259644
2024-04-21T02:56:17.212Z,51.259548
2024-04-21T02:57:17.199Z,51.259541
2024-04-21T02:58:17.244Z,51.259556
2024-04-21T02:59:17.199Z,51.259567
2024-04-21T03:00:17.192Z,51.259552
2024-04-21T03:01:17.213Z,51.259544
2024-04-21T03:02:17.174Z,51.259544
2024-04-21T03:03:17.149Z,51.259537
2024-04-21T03:04:17.237Z,51.259583
2024-04-21T03:05:17.139Z,51.259624
2024-04-21T03:06:17.125Z,51.259636
2024-04-21T03:07:17.222Z,51.259659
2024-04-21T03:08:17.104Z,51.259647
2024-04-21T03:09:17.111Z,51.259743
2024-04-21T03:10:17.182Z,51.259575
2024-04-21T03:11:17.147Z,51.259583
2024-04-21T03:12:17.100Z,51.259678
2024-04-21T03:13:17.132Z,51.259663
2024-04-21T03:14:17.089Z,51.259617
2024-04-21T03:15:17.047Z,51.259670
2024-04-21T03:16:17.199Z,51.259598
2024-04-21T03:17:17.051Z,51.259590
2024-04-21T03:18:17.053Z,51.259468
2024-04-21T03:19:17.080Z,51.259460
2024-04-21T03:20:17.018Z,51.259445
2024-04-21T03:21:17.003Z,51.259438
2024-04-21T03:22:17.185Z,51.259544
2024-04-21T03:23:17.026Z,51.259541
2024-04-21T03:24:16.980Z,51.259525
2024-04-21T03:25:17.098Z,51.259495
2024-04-21T03:26:16.963Z,51.259354
2024-04-21T03:27:16.985Z,51.259445
2024-04-21T03:28:17.082Z,51.259445
2024-04-21T03:29:16.942Z,51.259418
2024-04-21T03:30:16.956Z,51.259533
2024-04-21T03:31:16.964Z,51.259579
2024-04-21T03:32:16.963Z,51.259567
2024-04-21T03:33:17.032Z,51.259426
2024-04-21T03:34:16.922Z,51.259445
2024-04-21T03:35:16.915Z,51.259438
2024-04-21T03:36:16.896Z,51.259380
2024-04-21T03:37:16.985Z,51.259460
2024-04-21T03:38:16.874Z,51.259426
2024-04-21T03:39:16.879Z,51.259438
2024-04-21T03:40:16.934Z,51.259407
2024-04-21T03:41:16.864Z,51.259418
2024-04-21T03:42:16.860Z,51.259449
2024-04-21T03:43:16.911Z,51.259403
2024-04-21T03:44:16.829Z,51.259464
2024-04-21T03:45:16.861Z,51.259556
2024-04-21T03:46:16.872Z,51.259632
2024-04-21T03:47:16.818Z,51.259609
2024-04-21T03:48:16.807Z,51.259552
2024-04-21T03:49:16.858Z,51.259487
2024-04-21T03:50:16.781Z,51.259457
2024-04-21T03:51:16.788Z,51.259403
2024-04-21T03:52:16.841Z,51.259335
2024-04-21T03:53:16.756Z,51.259312
2024-04-21T03:54:16.758Z,51.259308
2024-04-21T03:55:16.772Z,51.259392
2024-04-21T03:56:16.749Z,51.259403
2024-04-21T03:57:16.744Z,51.259434
2024-04-21T03:58:16.895Z,51.259472
2024-04-21T03:59:16.711Z,51.259449
2024-04-21T04:00:16.739Z,51.259438
2024-04-21T04:01:16.748Z,51.259411
2024-04-21T04:02:16.685Z,51.259499
2024-04-21T04:03:16.765Z,51.259380
2024-04-21T04:04:16.808Z,51.259399
2024-04-21T04:05:16.683Z,51.259399
2024-04-21T04:06:16.654Z,51.259335
2024-04-21T04:07:16.743Z,51.259403
2024-04-21T04:08:16.652Z,51.259483
2024-04-21T04:09:16.642Z,51.259502
2024-04-21T04:10:16.698Z,51.259617
2024-04-21T04:11:16.661Z,51.259552
2024-04-21T04:12:16.608Z,51.259541
2024-04-21T04:13:16.631Z,51.259480
2024-04-21T04:14:16.604Z,51.259453
2024-04-21T04:15:16.575Z,51.259613
2024-04-21T04:16:16.626Z,51.259537
2024-04-21T04:17:16.569Z,51.259525
2024-04-21T04:18:16.569Z,51.259556
2024-04-21T04:19:16.885Z,51.259506
2024-04-21T04:20:16.536Z,51.259460
2024-04-21T04:21:16.531Z,51.259453
2024-04-21T04:22:16.622Z,51.259476
2024-04-21T04:23:16.526Z,51.259491
2024-04-21T04:24:16.565Z,51.259491
2024-04-21T04:25:16.584Z,51.259544
2024-04-21T04:26:16.485Z,51.259502
2024-04-21T04:27:16.470Z,51.259525
2024-04-21T04:28:16.500Z,51.259537
2024-04-21T04:29:16.465Z,51.259567
2024-04-21T04:30:16.459Z,51.259575
2024-04-21T04:31:16.512Z,51.259575
2024-04-21T04:32:16.441Z,51.259602
2024-04-21T04:33:16.481Z,51.259590
2024-04-21T04:34:16.483Z,51.259609
2024-04-21T04:35:16.422Z,51.259571
2024-04-21T04:36:16.409Z,51.259544
2024-04-21T04:37:17.490Z,51.259556
2024-04-21T04:38:16.422Z,51.259480
2024-04-21T04:39:16.380Z,51.259460
2024-04-21T04:40:16.429Z,51.259575
2024-04-21T04:41:16.368Z,51.259537
2024-04-21T04:42:16.397Z,51.259521
2024-04-21T04:43:16.376Z,51.259495
2024-04-21T04:44:16.342Z,51.259518
2024-04-21T04:45:16.339Z,51.259575
2024-04-21T04:46:16.403Z,51.259544
2024-04-21T04:47:16.382Z,51.259464
2024-04-21T04:48:16.386Z,51.259445
2024-04-21T04:49:16.327Z,51.259441
2024-04-21T04:50:16.303Z,51.259457
2024-04-21T04:51:17.304Z,51.259491
2024-04-21T04:52:16.342Z,51.259472
2024-04-21T04:53:16.269Z,51.259476
2024-04-21T04:54:16.268Z,51.259483
2024-04-21T04:55:16.308Z,51.259525
2024-04-21T04:56:16.295Z,51.259544
2024-04-21T04:57:16.233Z,51.259525
2024-04-21T04:58:16.280Z,51.259537
2024-04-21T04:59:16.236Z,51.259537
2024-04-21T05:00:16.241Z,51.259529
2024-04-21T05:01:16.393Z,51.259514
2024-04-21T05:02:16.191Z,51.259541
2024-04-21T05:03:16.197Z,51.259537
2024-04-21T05:04:16.293Z,51.259499
2024-04-21T05:05:16.187Z,51.259525
2024-04-21T05:06:16.225Z,51.259514
2024-04-21T05:07:16.206Z,51.259583
2024-04-21T05:08:16.172Z,51.259571
2024-04-21T05:09:16.145Z,51.259590
2024-04-21T05:10:16.204Z,51.259541
2024-04-21T05:11:16.180Z,51.259563
2024-04-21T05:12:16.117Z,51.259541
2024-04-21T05:13:16.156Z,51.259537
2024-04-21T05:14:16.112Z,51.259529
2024-04-21T05:15:16.098Z,51.259518
2024-04-21T05:16:16.132Z,51.259502
2024-04-21T05:17:16.129Z,51.259502
2024-04-21T05:18:16.109Z,51.259438
2024-04-21T05:19:16.176Z,51.259533
2024-04-21T05:20:16.140Z,51.259583
2024-04-21T05:21:16.044Z,51.259560
2024-04-21T05:22:16.079Z,51.259502
2024-04-21T05:23:16.054Z,51.259514
2024-04-21T05:24:16.032Z,51.259308
2024-04-21T05:25:16.046Z,51.259399
2024-04-21T05:26:15.993Z,51.259422
2024-04-21T05:27:15.993Z,51.259491
2024-04-21T05:28:16.028Z,51.259514
2024-04-21T05:29:15.998Z,51.259476
2024-04-21T05:30:16.003Z,51.259502
2024-04-21T05:31:16.042Z,51.259476
2024-04-21T05:32:15.984Z,51.259483
2024-04-21T05:33:16.021Z,51.259476
2024-04-21T05:34:15.972Z,51.259407
2024-04-21T05:35:15.953Z,51.259384
2024-04-21T05:36:15.937Z,51.259468
2024-04-21T05:37:15.958Z,51.259506
2024-04-21T05:38:15.963Z,51.259533
2024-04-21T05:39:15.914Z,51.259460
2024-04-21T05:40:15.911Z,51.259460
2024-04-21T05:41:15.880Z,51.259510
2024-04-21T05:42:15.862Z,51.259460
2024-04-21T05:43:15.965Z,51.259464
2024-04-21T05:44:15.844Z,51.259445
2024-04-21T05:45:15.855Z,51.259506
2024-04-21T05:46:15.839Z,51.259483
2024-04-21T05:47:15.879Z,51.259491
2024-04-21T05:48:15.864Z,51.259483
2024-04-21T05:49:15.906Z,51.259575
2024-04-21T05:50:15.820Z,51.259525
2024-04-21T05:51:15.798Z,51.259480
2024-04-21T05:52:15.971Z,51.259514
2024-04-21T05:53:15.835Z,51.259521
2024-04-21T05:54:15.780Z,51.259514
2024-04-21T05:55:15.810Z,51.259510
2024-04-21T05:56:15.750Z,51.259487
2024-04-21T05:57:47.729Z,51.259521
2024-04-21T05:58:15.783Z,51.259476
2024-04-21T05:59:15.766Z,51.259510
2024-04-21T06:00:15.731Z,51.259544
2024-04-21T06:01:15.808Z,51.259571
2024-04-21T06:02:15.810Z,51.259602
2024-04-21T06:03:15.706Z,51.259560
2024-04-21T06:04:15.790Z,51.259552
2024-04-21T06:05:15.776Z,51.259636
2024-04-21T06:06:15.873Z,51.259548
2024-04-21T06:07:15.741Z,51.259472
2024-04-21T06:08:15.722Z,51.259514
2024-04-21T06:09:15.646Z,51.259541
2024-04-21T06:10:15.665Z,51.259541
2024-04-21T06:11:15.728Z,51.259602
2024-04-21T06:12:15.667Z,51.259556
2024-04-21T06:13:15.709Z,51.259594
2024-04-21T06:14:15.698Z,51.259583
2024-04-21T06:15:15.668Z,51.259525
2024-04-21T06:16:15.727Z,51.259502
2024-04-21T06:17:15.662Z,51.259502
2024-04-21T06:18:15.597Z,51.259483
2024-04-21T06:19:15.671Z,51.259499
2024-04-21T06:20:15.609Z,51.259476
2024-04-21T06:21:15.607Z,51.259487
2024-04-21T06:22:15.565Z,51.259514
2024-04-21T06:23:15.514Z,51.259453
2024-04-21T06:24:15.516Z,51.259487
2024-04-21T06:25:15.528Z,51.259521
2024-04-21T06:26:16.739Z,51.259510
2024-04-21T06:27:15.480Z,51.259563
2024-04-21T06:28:15.528Z,51.259586
2024-04-21T06:29:15.483Z,51.259598
2024-04-21T06:30:15.470Z,51.259586
2024-04-21T06:31:15.494Z,51.259609
2024-04-21T06:32:15.478Z,51.259624
2024-04-21T06:33:15.420Z,51.259613
2024-04-21T06:34:15.490Z,51.259533
2024-04-21T06:35:15.398Z,51.259506
2024-04-21T06:36:15.387Z,51.259441
2024-04-21T06:37:15.420Z,51.259476
2024-04-21T06:38:15.382Z,51.259472
2024-04-21T06:39:15.613Z,51.259533
2024-04-21T06:40:17.409Z,51.259518
2024-04-21T06:41:16.387Z,51.259579
2024-04-21T06:42:16.428Z,51.259579
2024-04-21T06:43:15.365Z,51.259560
2024-04-21T06:44:15.326Z,51.259594
2024-04-21T06:45:15.315Z,51.259583
2024-04-21T06:46:15.335Z,51.259621
2024-04-21T06:47:15.271Z,51.259548
2024-04-21T06:48:15.444Z,51.259560
2024-04-21T06:49:15.293Z,51.259609
2024-04-21T06:50:15.240Z,51.259605
2024-04-21T06:51:15.245Z,51.259586
2024-04-21T06:52:15.276Z,51.259552
2024-04-21T06:53:15.254Z,51.259560
2024-04-21T06:54:15.231Z,51.259590
2024-04-21T06:55:16.262Z,51.259598
2024-04-21T06:56:15.175Z,51.259590
2024-04-21T06:57:15.321Z,51.259506
2024-04-21T06:58:15.287Z,51.259457
2024-04-21T06:59:15.156Z,51.259445
2024-04-21T07:00:15.129Z,51.259510
2024-04-21T07:01:16.253Z,51.259529
2024-04-21T07:02:15.222Z,51.259575
2024-04-21T07:03:15.142Z,51.259529
2024-04-21T07:04:15.117Z,51.259521
2024-04-21T07:05:15.090Z,51.259502
2024-04-21T07:06:15.089Z,51.259483
2024-04-21T07:07:15.390Z,51.259491
2024-04-21T07:08:15.056Z,51.259518
2024-04-21T07:09:15.045Z,51.259541
2024-04-21T07:10:15.133Z,51.259529
2024-04-21T07:11:15.157Z,51.259521
2024-04-21T07:12:15.040Z,51.259521
2024-04-21T07:13:15.014Z,51.259533
2024-04-21T07:14:20.726Z,51.259521
2024-04-21T07:15:16.017Z,51.259529
2024-04-21T07:16:15.039Z,51.259567
2024-04-21T07:17:14.971Z,51.259518
2024-04-21T07:18:15.019Z,51.259483
2024-04-21T07:19:14.950Z,51.259548
2024-04-21T07:20:14.938Z,51.259544
2024-04-21T07:21:14.955Z,51.259510
2024-04-21T07:22:14.914Z,51.259472
2024-04-21T07:23:14.897Z,51.259441
2024-04-21T07:24:14.890Z,51.259453
2024-04-21T07:25:19.986Z,51.259491
2024-04-21T07:26:16.876Z,51.259552
2024-04-21T07:27:14.849Z,51.259571
2024-04-21T07:28:14.869Z,51.259617
2024-04-21T07:29:14.835Z,51.259579
2024-04-21T07:30:14.924Z,51.259586
2024-04-21T07:31:14.821Z,51.259541
2024-04-21T07:32:14.816Z,51.259502
2024-04-21T07:33:14.833Z,51.259506
2024-04-21T07:34:14.809Z,51.259491
2024-04-21T07:35:14.776Z,51.259571
2024-04-21T07:36:14.787Z,51.259644
2024-04-21T07:37:14.755Z,51.259617
2024-04-21T07:38:14.733Z,51.259640
2024-04-21T07:39:14.741Z,51.259571
2024-04-21T07:40:14.775Z,51.259548
2024-04-21T07:41:14.708Z,51.259586
2024-04-21T07:42:14.685Z,51.259560
2024-04-21T07:43:14.791Z,51.259621
2024-04-21T07:44:14.685Z,51.259563
2024-04-21T07:45:14.678Z,51.259487
2024-04-21T07:46:14.745Z,51.259525
2024-04-21T07:47:14.694Z,51.259510
2024-04-21T07:48:14.702Z,51.259460
2024-04-21T07:49:14.729Z,51.259560
2024-04-21T07:50:14.619Z,51.259434
2024-04-21T07:51:17.561Z,51.259487
2024-04-21T07:52:15.628Z,51.259506
2024-04-21T07:53:14.596Z,51.259521
2024-04-21T07:54:14.575Z,51.259518
2024-04-21T07:55:14.627Z,51.259499
2024-04-21T07:56:14.567Z,51.259563
2024-04-21T07:57:14.512Z,51.259598
2024-04-21T07:58:14.541Z,51.259647
2024-04-21T07:59:14.501Z,51.259567
2024-04-21T08:00:14.501Z,51.259602
2024-04-21T08:01:14.592Z,51.259567
2024-04-21T08:02:14.508Z,51.259624
2024-04-21T08:03:14.500Z,51.259602
2024-04-21T08:04:14.474Z,51.259533
2024-04-21T08:05:14.600Z,51.259560
2024-04-21T08:06:14.451Z,51.259563
2024-04-21T08:07:14.467Z,51.259544
2024-04-21T08:08:14.416Z,51.259590
2024-04-21T08:09:26.263Z,51.259609
2024-04-21T08:10:16.475Z,51.259563
2024-04-21T08:11:14.441Z,51.259567
2024-04-21T08:12:14.379Z,51.259548
2024-04-21T08:13:14.430Z,51.259525
2024-04-21T08:14:14.340Z,51.259533
2024-04-21T08:15:14.362Z,51.259525
2024-04-21T08:16:14.406Z,51.259583
2024-04-21T08:17:14.335Z,51.259586
2024-04-21T08:18:14.384Z,51.259521
2024-04-21T08:19:14.317Z,51.259537
2024-04-21T08:20:14.270Z,51.259480
2024-04-21T08:21:14.284Z,51.259548
2024-04-21T08:22:14.293Z,51.259533
2024-04-21T08:23:14.238Z,51.259560
2024-04-21T08:24:14.236Z,51.259541
2024-04-21T08:25:14.227Z,51.259521
2024-04-21T08:26:14.252Z,51.259544
2024-04-21T08:27:14.208Z,51.259594
2024-04-21T08:28:14.250Z,51.259548
2024-04-21T08:29:14.185Z,51.259533
2024-04-21T08:30:14.169Z,51.259556
2024-04-21T08:31:14.213Z,51.259537
2024-04-21T08:32:14.212Z,51.259537
2024-04-21T08:33:14.145Z,51.259598
2024-04-21T08:34:14.163Z,51.259537
2024-04-21T08:35:14.148Z,51.259594
2024-04-21T08:36:14.140Z,51.259590
2024-04-21T08:37:14.135Z,51.259636
2024-04-21T08:38:14.091Z,51.259636
2024-04-21T08:39:14.087Z,51.259628
2024-04-21T08:40:14.106Z,51.259602
2024-04-21T08:41:14.116Z,51.259613
2024-04-21T08:42:14.062Z,51.259598
2024-04-21T08:43:14.156Z,51.259537
2024-04-21T08:44:14.647Z,51.259586
2024-04-21T08:45:14.128Z,51.259544
2024-04-21T08:46:14.650Z,51.259552
2024-04-21T08:47:14.047Z,51.259598
2024-04-21T08:48:14.043Z,51.259544
2024-04-21T08:49:14.054Z,51.259499
2024-04-21T08:50:14.002Z,51.259567
2024-04-21T08:51:13.975Z,51.259533
2024-04-21T08:52:13.964Z,51.259556
2024-04-21T08:53:13.968Z,51.259518
2024-04-21T08:54:13.962Z,51.259537
2024-04-21T08:55:14.020Z,51.259666
2024-04-21T08:56:13.920Z,51.259583
2024-04-21T08:57:13.930Z,51.259487
2024-04-21T08:58:13.948Z,51.259449
2024-04-21T08:59:13.929Z,51.259537
2024-04-21T09:00:14.524Z,51.259529
2024-04-21T09:01:13.919Z,51.259487
2024-04-21T09:02:13.903Z,51.259563
2024-04-21T09:03:13.867Z,51.259552
2024-04-21T09:04:13.992Z,51.259495
2024-04-21T09:05:13.846Z,51.259590
2024-04-21T09:06:13.828Z,51.259487
2024-04-21T09:07:13.977Z,51.259499
2024-04-21T09:08:13.834Z,51.259472
2024-04-21T09:09:13.796Z,51.259510
2024-04-21T09:10:13.887Z,51.259464
2024-04-21T09:11:13.812Z,51.259518
2024-04-21T09:12:13.767Z,51.259502
2024-04-21T09:13:13.768Z,51.259510
2024-04-21T09:14:13.814Z,51.259472
2024-04-21T09:15:13.766Z,51.259495
2024-04-21T09:16:13.809Z,51.259457
2024-04-21T09:17:13.755Z,51.259533
2024-04-21T09:18:13.776Z,51.259510
2024-04-21T09:19:13.713Z,51.259510
2024-04-21T09:20:13.804Z,51.259594
2024-04-21T09:21:13.696Z,51.259621
2024-04-21T09:22:13.710Z,51.259483
2024-04-21T09:23:13.656Z,51.259483
2024-04-21T09:24:13.655Z,51.259392
2024-04-21T09:25:13.657Z,51.259548
2024-04-21T09:26:13.646Z,51.259670
2024-04-21T09:27:13.651Z,51.259537
2024-04-21T09:28:13.650Z,51.259617
2024-04-21T09:29:13.594Z,51.259613
2024-04-21T09:30:13.594Z,51.259575
2024-04-21T09:31:13.629Z,51.259480
2024-04-21T09:32:13.628Z,51.259541
2024-04-21T09:33:13.662Z,51.259521
2024-04-21T09:34:13.572Z,51.259480
2024-04-21T09:35:13.547Z,51.259407
2024-04-21T09:36:13.549Z,51.259422
2024-04-21T09:37:13.579Z,51.259438
2024-04-21T09:38:13.527Z,51.259510
2024-04-21T09:39:13.508Z,51.259514
2024-04-21T09:40:13.516Z,51.259521
2024-04-21T09:41:13.524Z,51.259560
2024-04-21T09:42:13.476Z,51.259560
2024-04-21T09:43:13.477Z,51.259521
2024-04-21T09:44:13.452Z,51.259670
2024-04-21T09:45:13.483Z,51.259712
2024-04-21T09:46:13.505Z,51.259651
2024-04-21T09:47:13.426Z,51.259563
2024-04-21T09:48:13.495Z,51.259483
2024-04-21T09:49:13.430Z,51.259499
2024-04-21T09:50:13.437Z,51.259476
2024-04-21T09:51:13.485Z,51.259563
2024-04-21T09:52:13.407Z,51.259594
2024-04-21T09:53:13.371Z,51.259563
2024-04-21T09:54:13.360Z,51.259548
2024-04-21T09:55:13.393Z,51.259655
2024-04-21T09:56:14.338Z,51.259571
2024-04-21T09:57:13.409Z,51.259533
2024-04-21T09:58:13.342Z,51.259468
2024-04-21T09:59:13.318Z,51.259518
2024-04-21T10:00:13.315Z,51.259598
2024-04-21T10:01:13.328Z,51.259613
2024-04-21T10:02:13.301Z,51.259647
2024-04-21T10:03:13.300Z,51.259575
2024-04-21T10:04:13.368Z,51.259640
2024-04-21T10:05:13.244Z,51.259605
2024-04-21T10:06:13.289Z,51.259590
2024-04-21T10:07:13.298Z,51.259541
2024-04-21T10:08:13.224Z,51.259659
2024-04-21T10:09:13.217Z,51.259617
2024-04-21T10:10:13.219Z,51.259632
2024-04-21T10:11:13.192Z,51.259491
2024-04-21T10:12:13.179Z,51.259464
2024-04-21T10:13:13.227Z,51.259464
2024-04-21T10:14:13.190Z,51.259571
2024-04-21T10:15:13.152Z,51.259617
2024-04-21T10:16:13.150Z,51.259502
2024-04-21T10:17:13.114Z,51.259438
2024-04-21T10:18:13.262Z,51.259495
2024-04-21T10:19:13.153Z,51.259548
2024-04-21T10:20:13.097Z,51.259594
2024-04-21T10:21:13.122Z,51.259552
2024-04-21T10:22:13.173Z,51.259560
2024-04-21T10:23:13.071Z,51.259552
2024-04-21T10:24:13.052Z,51.259567
2024-04-21T10:25:13.110Z,51.259464
2024-04-21T10:26:13.026Z,51.259521
2024-04-21T10:27:13.075Z,51.259609
2024-04-21T10:28:13.074Z,51.259571
2024-04-21T10:29:13.038Z,51.259514
2024-04-21T10:30:12.986Z,51.259499
2024-04-21T10:31:13.136Z,51.259449
2024-04-21T10:32:13.040Z,51.259434
2024-04-21T10:33:13.025Z,51.259468
2024-04-21T10:34:13.223Z,51.259506
2024-04-21T10:35:12.930Z,51.259537
2024-04-21T10:36:12.934Z,51.259487
2024-04-21T10:37:12.974Z,51.259548
2024-04-21T10:38:12.908Z,51.259544
2024-04-21T10:39:12.895Z,51.259476
2024-04-21T10:40:12.916Z,51.259468
2024-04-21T10:41:12.931Z,51.259468
2024-04-21T10:42:12.914Z,51.259495
2024-04-21T10:43:12.886Z,51.259533
2024-04-21T10:44:12.864Z,51.259552
2024-04-21T10:45:12.843Z,51.259556
2024-04-21T10:46:12.878Z,51.259499
2024-04-21T10:47:12.880Z,51.259571
2024-04-21T10:48:12.932Z,51.259624
2024-04-21T10:49:12.838Z,51.259529
2024-04-21T10:50:12.789Z,51.259529
2024-04-21T10:51:12.818Z,51.259495
2024-04-21T10:52:12.807Z,51.259457
2024-04-21T10:53:12.801Z,51.259525
2024-04-21T10:54:12.761Z,51.259590
2024-04-21T10:55:12.799Z,51.259579
2024-04-21T10:56:12.775Z,51.259571
2024-04-21T10:57:12.716Z,51.259548
2024-04-21T10:58:12.772Z,51.259521
2024-04-21T10:59:12.689Z,51.259583
2024-04-21T11:00:12.692Z,51.259499
2024-04-21T11:01:12.799Z,51.259537
2024-04-21T11:02:12.691Z,51.259560
2024-04-21T11:03:12.700Z,51.259689
2024-04-21T11:04:12.705Z,51.259724
2024-04-21T11:05:12.685Z,51.259583
2024-04-21T11:06:12.643Z,51.259518
2024-04-21T11:07:12.704Z,51.259571
2024-04-21T11:08:12.596Z,51.259556
2024-04-21T11:09:12.606Z,51.259552
2024-04-21T11:10:12.631Z,51.259583
2024-04-21T11:11:12.626Z,51.259663
2024-04-21T11:12:12.578Z,51.259609
2024-04-21T11:13:12.572Z,51.259579
2024-04-21T11:14:12.599Z,51.259480
2024-04-21T11:15:12.531Z,51.259483
2024-04-21T11:16:12.637Z,51.259499
2024-04-21T11:17:12.510Z,51.259464
2024-04-21T11:18:12.570Z,51.259472
2024-04-21T11:19:12.535Z,51.259567
2024-04-21T11:20:12.498Z,51.259525
2024-04-21T11:21:12.470Z,51.259491
2024-04-21T11:22:12.486Z,51.259518
2024-04-21T11:23:12.476Z,51.259537
2024-04-21T11:24:12.452Z,51.259529